sensor_id;sensor_type;location;lat;lon;timestamp;temperature;humidity
52481;DHT22;38393;52.404;13.532;2023-06-22T00:01:10;20.80;95.20
52481;DHT22;38393;52.404;13.532;2023-06-22T00:03:35;20.70;96.20
52481;DHT22;38393;52.404;13.532;2023-06-22T00:06:01;20.70;95.60
52481;DHT22;38393;52.404;13.532;2023-06-22T00:08:26;20.60;95.60
52481;DHT22;38393;52.404;13.532;2023-06-22T00:10:52;20.60;95.60
52481;DHT22;38393;52.404;13.532;2023-06-22T00:13:17;20.60;95.80
52481;DHT22;38393;52.404;13.532;2023-06-22T00:15:43;20.60;96.20
52481;DHT22;38393;52.404;13.532;2023-06-22T00:18:10;20.60;96.60
52481;DHT22;38393;52.404;13.532;2023-06-22T00:20:36;20.50;96.70
52481;DHT22;38393;52.404;13.532;2023-06-22T00:23:03;20.50;97.30
52481;DHT22;38393;52.404;13.532;2023-06-22T00:25:37;20.40;97.80
52481;DHT22;38393;52.404;13.532;2023-06-22T00:28:03;20.40;97.40
52481;DHT22;38393;52.404;13.532;2023-06-22T00:30:30;20.40;97.70
52481;DHT22;38393;52.404;13.532;2023-06-22T00:32:56;20.40;97.80
52481;DHT22;38393;52.404;13.532;2023-06-22T00:35:21;20.40;97.90
52481;DHT22;38393;52.404;13.532;2023-06-22T00:37:47;20.40;97.90
52481;DHT22;38393;52.404;13.532;2023-06-22T00:40:12;20.30;98.20
52481;DHT22;38393;52.404;13.532;2023-06-22T00:42:38;20.30;98.50
52481;DHT22;38393;52.404;13.532;2023-06-22T00:45:05;20.30;98.60
52481;DHT22;38393;52.404;13.532;2023-06-22T00:47:31;20.20;98.60
52481;DHT22;38393;52.404;13.532;2023-06-22T00:49:57;20.20;98.90
52481;DHT22;38393;52.404;13.532;2023-06-22T00:52:23;20.10;99.50
52481;DHT22;38393;52.404;13.532;2023-06-22T00:54:52;20.10;99.60
52481;DHT22;38393;52.404;13.532;2023-06-22T00:57:19;20.10;99.30
52481;DHT22;38393;52.404;13.532;2023-06-22T00:59:46;20.10;99.60
52481;DHT22;38393;52.404;13.532;2023-06-22T01:02:13;20.10;99.70
52481;DHT22;38393;52.404;13.532;2023-06-22T01:04:39;20.10;99.90
52481;DHT22;38393;52.404;13.532;2023-06-22T01:07:31;20.10;99.60
52481;DHT22;38393;52.404;13.532;2023-06-22T01:10:23;20.20;99.60
52481;DHT22;38393;52.404;13.532;2023-06-22T01:12:53;20.10;99.60
52481;DHT22;38393;52.404;13.532;2023-06-22T01:17:45;20.00;99.90
52481;DHT22;38393;52.404;13.532;2023-06-22T01:20:14;20.00;99.90
52481;DHT22;38393;52.404;13.532;2023-06-22T01:25:28;19.90;99.90
52481;DHT22;38393;52.404;13.532;2023-06-22T01:28:05;20.10;99.90
52481;DHT22;38393;52.404;13.532;2023-06-22T01:30:41;20.00;99.90
52481;DHT22;38393;52.404;13.532;2023-06-22T01:33:10;20.00;99.90
52481;DHT22;38393;52.404;13.532;2023-06-22T01:35:37;19.90;99.90
52481;DHT22;38393;52.404;13.532;2023-06-22T01:38:03;19.90;99.90
52481;DHT22;38393;52.404;13.532;2023-06-22T01:40:30;19.90;99.90
52481;DHT22;38393;52.404;13.532;2023-06-22T01:43:06;19.90;99.90
52481;DHT22;38393;52.404;13.532;2023-06-22T01:45:32;19.80;99.90
52481;DHT22;38393;52.404;13.532;2023-06-22T01:47:57;19.80;99.90
52481;DHT22;38393;52.404;13.532;2023-06-22T01:50:23;19.70;99.90
52481;DHT22;38393;52.404;13.532;2023-06-22T01:52:49;19.80;99.90
52481;DHT22;38393;52.404;13.532;2023-06-22T01:55:14;19.80;99.90
52481;DHT22;38393;52.404;13.532;2023-06-22T01:57:40;19.70;99.90
52481;DHT22;38393;52.404;13.532;2023-06-22T02:00:12;19.70;99.90
52481;DHT22;38393;52.404;13.532;2023-06-22T02:02:59;19.70;99.90
52481;DHT22;38393;52.404;13.532;2023-06-22T02:05:28;19.80;99.90
52481;DHT22;38393;52.404;13.532;2023-06-22T02:08:00;19.80;99.90
52481;DHT22;38393;52.404;13.532;2023-06-22T02:10:28;19.80;99.90
52481;DHT22;38393;52.404;13.532;2023-06-22T02:12:55;19.90;99.90
52481;DHT22;38393;52.404;13.532;2023-06-22T02:15:22;19.80;99.90
52481;DHT22;38393;52.404;13.532;2023-06-22T02:17:48;19.70;99.90
52481;DHT22;38393;52.404;13.532;2023-06-22T02:20:14;19.60;99.90
52481;DHT22;38393;52.404;13.532;2023-06-22T02:22:40;19.60;99.90
52481;DHT22;38393;52.404;13.532;2023-06-22T02:25:05;19.50;99.90
52481;DHT22;38393;52.404;13.532;2023-06-22T02:27:31;19.30;99.90
52481;DHT22;38393;52.404;13.532;2023-06-22T02:29:57;19.20;99.90
52481;DHT22;38393;52.404;13.532;2023-06-22T02:32:22;19.10;99.90
52481;DHT22;38393;52.404;13.532;2023-06-22T02:34:48;19.00;99.90
52481;DHT22;38393;52.404;13.532;2023-06-22T02:37:14;19.00;99.90
52481;DHT22;38393;52.404;13.532;2023-06-22T02:39:42;19.10;99.90
52481;DHT22;38393;52.404;13.532;2023-06-22T02:42:08;19.20;99.90
52481;DHT22;38393;52.404;13.532;2023-06-22T02:44:36;19.10;99.90
52481;DHT22;38393;52.404;13.532;2023-06-22T02:47:01;19.00;99.90
52481;DHT22;38393;52.404;13.532;2023-06-22T02:49:27;19.10;99.90
52481;DHT22;38393;52.404;13.532;2023-06-22T02:51:52;19.20;99.90
52481;DHT22;38393;52.404;13.532;2023-06-22T02:54:18;19.20;99.90
52481;DHT22;38393;52.404;13.532;2023-06-22T02:56:44;19.20;99.90
52481;DHT22;38393;52.404;13.532;2023-06-22T02:59:10;19.20;99.90
52481;DHT22;38393;52.404;13.532;2023-06-22T03:01:37;19.30;99.90
52481;DHT22;38393;52.404;13.532;2023-06-22T03:04:06;19.10;99.90
52481;DHT22;38393;52.404;13.532;2023-06-22T03:06:32;19.20;99.90
52481;DHT22;38393;52.404;13.532;2023-06-22T03:09:02;19.30;99.90
52481;DHT22;38393;52.404;13.532;2023-06-22T03:11:29;19.20;99.90
52481;DHT22;38393;52.404;13.532;2023-06-22T03:13:55;19.20;99.90
52481;DHT22;38393;52.404;13.532;2023-06-22T03:16:20;19.20;99.90
52481;DHT22;38393;52.404;13.532;2023-06-22T03:18:46;19.30;99.90
52481;DHT22;38393;52.404;13.532;2023-06-22T03:21:11;19.20;99.90
52481;DHT22;38393;52.404;13.532;2023-06-22T03:23:37;19.10;99.90
52481;DHT22;38393;52.404;13.532;2023-06-22T03:26:02;19.10;99.90
52481;DHT22;38393;52.404;13.532;2023-06-22T03:28:29;19.10;99.90
52481;DHT22;38393;52.404;13.532;2023-06-22T03:30:57;19.10;99.90
52481;DHT22;38393;52.404;13.532;2023-06-22T03:33:22;19.20;99.90
52481;DHT22;38393;52.404;13.532;2023-06-22T03:35:48;19.30;99.90
52481;DHT22;38393;52.404;13.532;2023-06-22T03:38:13;19.20;99.90
52481;DHT22;38393;52.404;13.532;2023-06-22T03:40:38;19.10;99.90
52481;DHT22;38393;52.404;13.532;2023-06-22T03:43:04;19.20;99.90
52481;DHT22;38393;52.404;13.532;2023-06-22T03:45:29;19.10;99.90
52481;DHT22;38393;52.404;13.532;2023-06-22T03:47:55;19.20;99.90
52481;DHT22;38393;52.404;13.532;2023-06-22T03:50:20;19.20;99.90
52481;DHT22;38393;52.404;13.532;2023-06-22T03:52:46;19.10;99.90
52481;DHT22;38393;52.404;13.532;2023-06-22T03:55:12;19.20;99.90
52481;DHT22;38393;52.404;13.532;2023-06-22T03:57:37;19.30;99.90
52481;DHT22;38393;52.404;13.532;2023-06-22T04:00:04;19.10;99.90
52481;DHT22;38393;52.404;13.532;2023-06-22T04:02:33;19.30;99.90
52481;DHT22;38393;52.404;13.532;2023-06-22T04:04:58;19.40;99.90
52481;DHT22;38393;52.404;13.532;2023-06-22T04:07:24;19.50;99.90
52481;DHT22;38393;52.404;13.532;2023-06-22T04:09:49;19.50;99.90
52481;DHT22;38393;52.404;13.532;2023-06-22T04:12:15;19.50;99.90
52481;DHT22;38393;52.404;13.532;2023-06-22T04:14:40;19.60;99.90
52481;DHT22;38393;52.404;13.532;2023-06-22T04:17:06;19.60;99.90
52481;DHT22;38393;52.404;13.532;2023-06-22T04:19:31;19.70;99.90
52481;DHT22;38393;52.404;13.532;2023-06-22T04:21:56;19.70;99.90
52481;DHT22;38393;52.404;13.532;2023-06-22T04:24:22;19.80;99.90
52481;DHT22;38393;52.404;13.532;2023-06-22T04:26:47;19.90;99.90
52481;DHT22;38393;52.404;13.532;2023-06-22T04:29:13;20.00;99.90
52481;DHT22;38393;52.404;13.532;2023-06-22T04:31:39;20.00;99.90
52481;DHT22;38393;52.404;13.532;2023-06-22T04:34:06;20.10;99.90
52481;DHT22;38393;52.404;13.532;2023-06-22T04:36:35;20.20;99.90
52481;DHT22;38393;52.404;13.532;2023-06-22T04:39:04;20.30;99.90
52481;DHT22;38393;52.404;13.532;2023-06-22T04:41:30;20.40;99.90
52481;DHT22;38393;52.404;13.532;2023-06-22T04:44:02;20.40;99.90
52481;DHT22;38393;52.404;13.532;2023-06-22T04:46:30;20.50;99.90
52481;DHT22;38393;52.404;13.532;2023-06-22T04:48:55;20.70;99.90
52481;DHT22;38393;52.404;13.532;2023-06-22T04:51:21;20.60;99.90
52481;DHT22;38393;52.404;13.532;2023-06-22T04:53:46;20.70;99.90
52481;DHT22;38393;52.404;13.532;2023-06-22T04:56:12;20.80;99.90
52481;DHT22;38393;52.404;13.532;2023-06-22T04:58:37;20.90;99.90
52481;DHT22;38393;52.404;13.532;2023-06-22T05:01:03;20.90;99.90
52481;DHT22;38393;52.404;13.532;2023-06-22T05:03:29;20.90;99.90
52481;DHT22;38393;52.404;13.532;2023-06-22T05:05:54;21.30;99.90
52481;DHT22;38393;52.404;13.532;2023-06-22T05:08:19;21.20;99.90
52481;DHT22;38393;52.404;13.532;2023-06-22T05:10:45;21.40;98.40
52481;DHT22;38393;52.404;13.532;2023-06-22T05:13:10;21.60;99.20
52481;DHT22;38393;52.404;13.532;2023-06-22T05:15:36;21.60;98.20
52481;DHT22;38393;52.404;13.532;2023-06-22T05:18:05;21.60;97.00
52481;DHT22;38393;52.404;13.532;2023-06-22T05:20:31;21.60;98.00
52481;DHT22;38393;52.404;13.532;2023-06-22T05:22:56;21.60;98.30
52481;DHT22;38393;52.404;13.532;2023-06-22T05:25:22;21.70;97.50
52481;DHT22;38393;52.404;13.532;2023-06-22T05:27:47;21.50;97.70
52481;DHT22;38393;52.404;13.532;2023-06-22T05:30:13;21.60;98.00
52481;DHT22;38393;52.404;13.532;2023-06-22T05:32:38;21.50;98.20
52481;DHT22;38393;52.404;13.532;2023-06-22T05:35:04;21.60;98.40
52481;DHT22;38393;52.404;13.532;2023-06-22T05:37:30;21.70;96.20
52481;DHT22;38393;52.404;13.532;2023-06-22T05:39:55;21.90;96.90
52481;DHT22;38393;52.404;13.532;2023-06-22T05:42:22;22.10;95.50
52481;DHT22;38393;52.404;13.532;2023-06-22T05:44:48;22.00;93.70
52481;DHT22;38393;52.404;13.532;2023-06-22T05:47:13;22.00;92.30
52481;DHT22;38393;52.404;13.532;2023-06-22T05:49:39;22.20;92.50
52481;DHT22;38393;52.404;13.532;2023-06-22T05:52:04;22.40;90.80
52481;DHT22;38393;52.404;13.532;2023-06-22T05:54:30;22.60;91.20
52481;DHT22;38393;52.404;13.532;2023-06-22T05:56:56;22.60;91.20
52481;DHT22;38393;52.404;13.532;2023-06-22T05:59:21;22.80;90.50
52481;DHT22;38393;52.404;13.532;2023-06-22T06:01:47;22.70;89.30
52481;DHT22;38393;52.404;13.532;2023-06-22T06:04:19;22.50;91.20
52481;DHT22;38393;52.404;13.532;2023-06-22T06:06:45;22.40;89.90
52481;DHT22;38393;52.404;13.532;2023-06-22T06:09:12;22.40;90.50
52481;DHT22;38393;52.404;13.532;2023-06-22T06:11:39;22.30;91.30
52481;DHT22;38393;52.404;13.532;2023-06-22T06:14:05;22.40;90.60
52481;DHT22;38393;52.404;13.532;2023-06-22T06:16:30;22.40;92.00
52481;DHT22;38393;52.404;13.532;2023-06-22T06:18:56;22.30;90.60
52481;DHT22;38393;52.404;13.532;2023-06-22T06:21:22;22.30;90.30
52481;DHT22;38393;52.404;13.532;2023-06-22T06:23:47;22.50;90.80
52481;DHT22;38393;52.404;13.532;2023-06-22T06:26:13;22.90;90.30
52481;DHT22;38393;52.404;13.532;2023-06-22T06:28:40;23.00;86.50
52481;DHT22;38393;52.404;13.532;2023-06-22T06:31:06;23.40;85.40
52481;DHT22;38393;52.404;13.532;2023-06-22T06:33:33;23.70;85.00
52481;DHT22;38393;52.404;13.532;2023-06-22T06:35:58;23.80;80.50
52481;DHT22;38393;52.404;13.532;2023-06-22T06:38:27;23.90;80.50
52481;DHT22;38393;52.404;13.532;2023-06-22T06:40:52;24.10;79.60
52481;DHT22;38393;52.404;13.532;2023-06-22T06:43:17;24.50;78.40
52481;DHT22;38393;52.404;13.532;2023-06-22T06:45:43;24.70;79.80
52481;DHT22;38393;52.404;13.532;2023-06-22T06:48:09;24.60;76.50
52481;DHT22;38393;52.404;13.532;2023-06-22T06:50:35;24.20;77.20
52481;DHT22;38393;52.404;13.532;2023-06-22T06:53:00;24.20;76.40
52481;DHT22;38393;52.404;13.532;2023-06-22T06:55:26;24.30;78.40
52481;DHT22;38393;52.404;13.532;2023-06-22T06:57:51;24.20;75.90
52481;DHT22;38393;52.404;13.532;2023-06-22T07:00:18;24.50;77.60
52481;DHT22;38393;52.404;13.532;2023-06-22T07:02:44;24.70;77.60
52481;DHT22;38393;52.404;13.532;2023-06-22T07:05:11;25.10;75.00
52481;DHT22;38393;52.404;13.532;2023-06-22T07:07:37;25.40;73.90
52481;DHT22;38393;52.404;13.532;2023-06-22T07:10:04;25.40;72.40
52481;DHT22;38393;52.404;13.532;2023-06-22T07:12:30;25.70;71.00
52481;DHT22;38393;52.404;13.532;2023-06-22T07:15:07;25.90;67.90
52481;DHT22;38393;52.404;13.532;2023-06-22T07:17:33;26.10;64.90
52481;DHT22;38393;52.404;13.532;2023-06-22T07:19:59;25.70;66.50
52481;DHT22;38393;52.404;13.532;2023-06-22T07:22:24;25.50;68.50
52481;DHT22;38393;52.404;13.532;2023-06-22T07:24:50;25.70;67.70
52481;DHT22;38393;52.404;13.532;2023-06-22T07:27:16;26.00;62.20
52481;DHT22;38393;52.404;13.532;2023-06-22T07:29:45;26.20;65.00
52481;DHT22;38393;52.404;13.532;2023-06-22T07:32:10;26.00;63.60
52481;DHT22;38393;52.404;13.532;2023-06-22T07:34:36;25.50;63.30
52481;DHT22;38393;52.404;13.532;2023-06-22T07:37:01;25.20;64.10
52481;DHT22;38393;52.404;13.532;2023-06-22T07:39:27;25.10;63.00
52481;DHT22;38393;52.404;13.532;2023-06-22T07:41:53;25.10;64.60
52481;DHT22;38393;52.404;13.532;2023-06-22T07:44:19;25.10;64.90
52481;DHT22;38393;52.404;13.532;2023-06-22T07:46:44;25.30;62.70
52481;DHT22;38393;52.404;13.532;2023-06-22T07:49:10;25.30;63.90
52481;DHT22;38393;52.404;13.532;2023-06-22T07:51:36;25.30;61.40
52481;DHT22;38393;52.404;13.532;2023-06-22T07:54:01;25.20;64.30
52481;DHT22;38393;52.404;13.532;2023-06-22T07:56:26;25.40;64.50
52481;DHT22;38393;52.404;13.532;2023-06-22T07:58:52;25.70;65.00
52481;DHT22;38393;52.404;13.532;2023-06-22T08:01:18;25.50;62.80
52481;DHT22;38393;52.404;13.532;2023-06-22T08:03:49;25.70;64.50
52481;DHT22;38393;52.404;13.532;2023-06-22T08:06:14;25.70;64.70
52481;DHT22;38393;52.404;13.532;2023-06-22T08:08:40;25.80;64.70
52481;DHT22;38393;52.404;13.532;2023-06-22T08:11:05;25.80;65.20
52481;DHT22;38393;52.404;13.532;2023-06-22T08:13:31;25.80;63.60
52481;DHT22;38393;52.404;13.532;2023-06-22T08:15:57;26.00;64.70
52481;DHT22;38393;52.404;13.532;2023-06-22T08:18:22;26.00;64.20
52481;DHT22;38393;52.404;13.532;2023-06-22T08:20:47;26.20;62.90
52481;DHT22;38393;52.404;13.532;2023-06-22T08:23:13;26.30;61.20
52481;DHT22;38393;52.404;13.532;2023-06-22T08:25:38;26.20;62.20
52481;DHT22;38393;52.404;13.532;2023-06-22T08:28:04;26.20;59.90
52481;DHT22;38393;52.404;13.532;2023-06-22T08:30:30;26.40;61.00
52481;DHT22;38393;52.404;13.532;2023-06-22T08:32:56;26.10;60.50
52481;DHT22;38393;52.404;13.532;2023-06-22T08:35:22;26.10;58.90
52481;DHT22;38393;52.404;13.532;2023-06-22T08:37:48;26.10;61.20
52481;DHT22;38393;52.404;13.532;2023-06-22T08:40:18;26.20;59.70
52481;DHT22;38393;52.404;13.532;2023-06-22T08:42:45;26.10;60.70
52481;DHT22;38393;52.404;13.532;2023-06-22T08:45:11;26.20;62.90
52481;DHT22;38393;52.404;13.532;2023-06-22T08:47:37;26.30;60.00
52481;DHT22;38393;52.404;13.532;2023-06-22T08:50:03;26.40;59.40
52481;DHT22;38393;52.404;13.532;2023-06-22T08:52:29;26.50;60.80
52481;DHT22;38393;52.404;13.532;2023-06-22T08:54:54;26.70;58.50
52481;DHT22;38393;52.404;13.532;2023-06-22T08:57:21;26.90;59.30
52481;DHT22;38393;52.404;13.532;2023-06-22T08:59:46;26.90;56.90
52481;DHT22;38393;52.404;13.532;2023-06-22T09:02:12;27.20;59.10
52481;DHT22;38393;52.404;13.532;2023-06-22T09:04:37;27.10;57.00
52481;DHT22;38393;52.404;13.532;2023-06-22T09:07:03;27.50;57.50
52481;DHT22;38393;52.404;13.532;2023-06-22T09:09:29;27.50;53.90
52481;DHT22;38393;52.404;13.532;2023-06-22T09:11:54;27.80;55.60
52481;DHT22;38393;52.404;13.532;2023-06-22T09:14:20;27.90;57.20
52481;DHT22;38393;52.404;13.532;2023-06-22T09:16:45;27.80;54.70
52481;DHT22;38393;52.404;13.532;2023-06-22T09:19:11;27.40;53.80
52481;DHT22;38393;52.404;13.532;2023-06-22T09:21:36;27.00;54.20
52481;DHT22;38393;52.404;13.532;2023-06-22T09:24:02;26.90;52.00
52481;DHT22;38393;52.404;13.532;2023-06-22T09:26:28;26.90;53.20
52481;DHT22;38393;52.404;13.532;2023-06-22T09:28:54;27.00;54.60
52481;DHT22;38393;52.404;13.532;2023-06-22T09:31:19;26.90;56.10
52481;DHT22;38393;52.404;13.532;2023-06-22T09:33:54;26.90;54.30
52481;DHT22;38393;52.404;13.532;2023-06-22T09:36:20;27.20;55.20
52481;DHT22;38393;52.404;13.532;2023-06-22T09:38:47;27.30;56.70
52481;DHT22;38393;52.404;13.532;2023-06-22T09:41:12;27.30;54.70
52481;DHT22;38393;52.404;13.532;2023-06-22T09:43:38;27.30;54.30
52481;DHT22;38393;52.404;13.532;2023-06-22T09:46:03;27.30;56.40
52481;DHT22;38393;52.404;13.532;2023-06-22T09:48:29;27.20;54.50
52481;DHT22;38393;52.404;13.532;2023-06-22T09:50:56;27.00;54.20
52481;DHT22;38393;52.404;13.532;2023-06-22T09:53:21;27.20;55.40
52481;DHT22;38393;52.404;13.532;2023-06-22T09:55:47;27.40;55.20
52481;DHT22;38393;52.404;13.532;2023-06-22T09:58:12;27.60;53.40
52481;DHT22;38393;52.404;13.532;2023-06-22T10:00:38;27.50;54.40
52481;DHT22;38393;52.404;13.532;2023-06-22T10:03:03;27.60;54.60
52481;DHT22;38393;52.404;13.532;2023-06-22T10:05:29;27.70;52.40
52481;DHT22;38393;52.404;13.532;2023-06-22T10:07:54;27.60;53.70
52481;DHT22;38393;52.404;13.532;2023-06-22T10:10:20;27.90;54.00
52481;DHT22;38393;52.404;13.532;2023-06-22T10:12:56;27.70;53.20
52481;DHT22;38393;52.404;13.532;2023-06-22T10:15:22;27.80;53.30
52481;DHT22;38393;52.404;13.532;2023-06-22T10:17:47;27.90;52.60
52481;DHT22;38393;52.404;13.532;2023-06-22T10:20:13;27.70;52.60
52481;DHT22;38393;52.404;13.532;2023-06-22T10:22:40;27.70;52.30
52481;DHT22;38393;52.404;13.532;2023-06-22T10:25:07;27.70;54.30
52481;DHT22;38393;52.404;13.532;2023-06-22T10:27:33;27.50;53.80
52481;DHT22;38393;52.404;13.532;2023-06-22T10:29:58;27.40;54.20
52481;DHT22;38393;52.404;13.532;2023-06-22T10:32:23;27.60;55.00
52481;DHT22;38393;52.404;13.532;2023-06-22T10:34:49;27.80;53.60
52481;DHT22;38393;52.404;13.532;2023-06-22T10:37:14;27.70;53.80
52481;DHT22;38393;52.404;13.532;2023-06-22T10:39:40;27.60;54.00
52481;DHT22;38393;52.404;13.532;2023-06-22T10:42:06;27.30;54.40
52481;DHT22;38393;52.404;13.532;2023-06-22T10:44:31;27.40;54.50
52481;DHT22;38393;52.404;13.532;2023-06-22T10:46:56;27.40;53.50
52481;DHT22;38393;52.404;13.532;2023-06-22T10:49:22;27.50;53.20
52481;DHT22;38393;52.404;13.532;2023-06-22T10:51:47;27.60;52.70
52481;DHT22;38393;52.404;13.532;2023-06-22T10:54:13;27.60;51.60
52481;DHT22;38393;52.404;13.532;2023-06-22T10:56:39;27.40;50.70
52481;DHT22;38393;52.404;13.532;2023-06-22T10:59:05;27.30;54.30
52481;DHT22;38393;52.404;13.532;2023-06-22T11:01:30;27.20;52.30
52481;DHT22;38393;52.404;13.532;2023-06-22T11:03:59;27.70;53.70
52481;DHT22;38393;52.404;13.532;2023-06-22T11:06:24;27.80;52.00
52481;DHT22;38393;52.404;13.532;2023-06-22T11:08:50;28.00;50.90
52481;DHT22;38393;52.404;13.532;2023-06-22T11:11:15;28.10;53.10
52481;DHT22;38393;52.404;13.532;2023-06-22T11:13:43;28.30;52.50
52481;DHT22;38393;52.404;13.532;2023-06-22T11:16:09;28.50;50.70
52481;DHT22;38393;52.404;13.532;2023-06-22T11:18:35;28.50;51.20
52481;DHT22;38393;52.404;13.532;2023-06-22T11:21:00;28.60;49.00
52481;DHT22;38393;52.404;13.532;2023-06-22T11:23:26;28.80;51.20
52481;DHT22;38393;52.404;13.532;2023-06-22T11:25:53;28.70;50.90
52481;DHT22;38393;52.404;13.532;2023-06-22T11:28:18;28.60;49.90
52481;DHT22;38393;52.404;13.532;2023-06-22T11:30:44;28.50;49.60
52481;DHT22;38393;52.404;13.532;2023-06-22T11:33:09;28.60;48.70
52481;DHT22;38393;52.404;13.532;2023-06-22T11:35:35;28.40;51.40
52481;DHT22;38393;52.404;13.532;2023-06-22T11:38:00;28.50;49.60
52481;DHT22;38393;52.404;13.532;2023-06-22T11:40:26;28.40;50.40
52481;DHT22;38393;52.404;13.532;2023-06-22T11:42:51;28.50;49.60
52481;DHT22;38393;52.404;13.532;2023-06-22T11:45:17;28.50;52.50
52481;DHT22;38393;52.404;13.532;2023-06-22T11:47:44;28.50;52.10
52481;DHT22;38393;52.404;13.532;2023-06-22T11:50:09;28.50;51.40
52481;DHT22;38393;52.404;13.532;2023-06-22T11:52:35;28.50;50.20
52481;DHT22;38393;52.404;13.532;2023-06-22T11:55:04;28.60;50.20
52481;DHT22;38393;52.404;13.532;2023-06-22T11:57:36;28.80;51.00
52481;DHT22;38393;52.404;13.532;2023-06-22T12:00:02;28.80;48.50
52481;DHT22;38393;52.404;13.532;2023-06-22T12:02:31;28.90;45.10
52481;DHT22;38393;52.404;13.532;2023-06-22T12:04:57;28.90;45.30
52481;DHT22;38393;52.404;13.532;2023-06-22T12:07:23;28.60;48.80
52481;DHT22;38393;52.404;13.532;2023-06-22T12:09:49;28.70;49.90
52481;DHT22;38393;52.404;13.532;2023-06-22T12:12:15;28.70;49.40
52481;DHT22;38393;52.404;13.532;2023-06-22T12:14:40;28.90;49.80
52481;DHT22;38393;52.404;13.532;2023-06-22T12:17:05;29.10;48.80
52481;DHT22;38393;52.404;13.532;2023-06-22T12:19:31;28.80;49.00
52481;DHT22;38393;52.404;13.532;2023-06-22T12:21:57;28.80;50.20
52481;DHT22;38393;52.404;13.532;2023-06-22T12:24:22;28.80;48.40
52481;DHT22;38393;52.404;13.532;2023-06-22T12:26:48;28.70;48.70
52481;DHT22;38393;52.404;13.532;2023-06-22T12:29:14;28.70;49.30
52481;DHT22;38393;52.404;13.532;2023-06-22T12:31:39;28.70;47.90
52481;DHT22;38393;52.404;13.532;2023-06-22T12:34:05;28.70;48.70
52481;DHT22;38393;52.404;13.532;2023-06-22T12:36:30;29.10;45.20
52481;DHT22;38393;52.404;13.532;2023-06-22T12:38:55;29.20;45.70
52481;DHT22;38393;52.404;13.532;2023-06-22T12:41:21;28.70;47.50
52481;DHT22;38393;52.404;13.532;2023-06-22T12:43:46;29.10;45.00
52481;DHT22;38393;52.404;13.532;2023-06-22T12:46:12;29.20;45.30
52481;DHT22;38393;52.404;13.532;2023-06-22T12:48:37;29.10;47.90
52481;DHT22;38393;52.404;13.532;2023-06-22T12:51:07;28.90;48.70
52481;DHT22;38393;52.404;13.532;2023-06-22T12:53:33;29.10;48.80
52481;DHT22;38393;52.404;13.532;2023-06-22T12:55:58;29.60;51.00
52481;DHT22;38393;52.404;13.532;2023-06-22T12:58:24;30.10;49.00
52481;DHT22;38393;52.404;13.532;2023-06-22T13:00:49;30.10;47.50
52481;DHT22;38393;52.404;13.532;2023-06-22T13:03:15;29.90;47.10
52481;DHT22;38393;52.404;13.532;2023-06-22T13:05:40;29.70;46.90
52481;DHT22;38393;52.404;13.532;2023-06-22T13:08:06;29.70;48.00
52481;DHT22;38393;52.404;13.532;2023-06-22T13:10:31;30.10;46.80
52481;DHT22;38393;52.404;13.532;2023-06-22T13:12:57;30.10;48.50
52481;DHT22;38393;52.404;13.532;2023-06-22T13:15:27;30.50;46.10
52481;DHT22;38393;52.404;13.532;2023-06-22T13:17:52;30.30;48.50
52481;DHT22;38393;52.404;13.532;2023-06-22T13:20:18;30.10;46.40
52481;DHT22;38393;52.404;13.532;2023-06-22T13:22:43;30.10;48.10
52481;DHT22;38393;52.404;13.532;2023-06-22T13:25:09;29.70;48.00
52481;DHT22;38393;52.404;13.532;2023-06-22T13:27:41;29.70;48.40
52481;DHT22;38393;52.404;13.532;2023-06-22T13:30:08;29.70;49.80
52481;DHT22;38393;52.404;13.532;2023-06-22T13:32:34;29.80;47.70
52481;DHT22;38393;52.404;13.532;2023-06-22T13:34:59;29.70;47.30
52481;DHT22;38393;52.404;13.532;2023-06-22T13:37:26;29.40;47.30
52481;DHT22;38393;52.404;13.532;2023-06-22T13:39:51;29.50;46.40
52481;DHT22;38393;52.404;13.532;2023-06-22T13:42:17;29.60;48.80
52481;DHT22;38393;52.404;13.532;2023-06-22T13:44:42;29.40;47.20
52481;DHT22;38393;52.404;13.532;2023-06-22T13:47:08;29.50;49.00
52481;DHT22;38393;52.404;13.532;2023-06-22T13:49:34;29.60;47.80
52481;DHT22;38393;52.404;13.532;2023-06-22T13:51:59;29.60;47.10
52481;DHT22;38393;52.404;13.532;2023-06-22T13:54:25;29.70;49.20
52481;DHT22;38393;52.404;13.532;2023-06-22T13:56:50;29.60;47.70
52481;DHT22;38393;52.404;13.532;2023-06-22T13:59:16;29.60;48.10
52481;DHT22;38393;52.404;13.532;2023-06-22T14:01:41;29.60;47.90
52481;DHT22;38393;52.404;13.532;2023-06-22T14:04:08;29.60;47.90
52481;DHT22;38393;52.404;13.532;2023-06-22T14:06:34;29.50;50.70
52481;DHT22;38393;52.404;13.532;2023-06-22T14:08:59;29.70;50.20
52481;DHT22;38393;52.404;13.532;2023-06-22T14:11:25;29.80;49.20
52481;DHT22;38393;52.404;13.532;2023-06-22T14:13:50;29.90;48.80
52481;DHT22;38393;52.404;13.532;2023-06-22T14:16:17;29.80;46.40
52481;DHT22;38393;52.404;13.532;2023-06-22T14:18:42;29.70;48.60
52481;DHT22;38393;52.404;13.532;2023-06-22T14:21:08;29.90;48.50
52481;DHT22;38393;52.404;13.532;2023-06-22T14:23:33;29.80;48.10
52481;DHT22;38393;52.404;13.532;2023-06-22T14:25:59;29.40;48.20
52481;DHT22;38393;52.404;13.532;2023-06-22T14:28:24;29.50;48.10
52481;DHT22;38393;52.404;13.532;2023-06-22T14:30:50;29.80;48.80
52481;DHT22;38393;52.404;13.532;2023-06-22T14:33:15;29.80;51.50
52481;DHT22;38393;52.404;13.532;2023-06-22T14:35:41;29.90;48.30
52481;DHT22;38393;52.404;13.532;2023-06-22T14:38:06;30.00;47.00
52481;DHT22;38393;52.404;13.532;2023-06-22T14:40:32;30.00;46.40
52481;DHT22;38393;52.404;13.532;2023-06-22T14:42:57;30.00;47.10
52481;DHT22;38393;52.404;13.532;2023-06-22T14:45:23;30.00;45.40
52481;DHT22;38393;52.404;13.532;2023-06-22T14:47:49;29.80;47.80
52481;DHT22;38393;52.404;13.532;2023-06-22T14:50:15;29.90;47.30
52481;DHT22;38393;52.404;13.532;2023-06-22T14:52:40;29.90;48.70
52481;DHT22;38393;52.404;13.532;2023-06-22T14:55:06;29.80;48.30
52481;DHT22;38393;52.404;13.532;2023-06-22T14:57:32;29.80;49.30
52481;DHT22;38393;52.404;13.532;2023-06-22T14:59:57;29.80;47.80
52481;DHT22;38393;52.404;13.532;2023-06-22T15:02:23;30.00;47.70
52481;DHT22;38393;52.404;13.532;2023-06-22T15:04:48;29.90;49.40
52481;DHT22;38393;52.404;13.532;2023-06-22T15:07:14;30.00;46.30
52481;DHT22;38393;52.404;13.532;2023-06-22T15:09:40;29.90;46.30
52481;DHT22;38393;52.404;13.532;2023-06-22T15:12:08;30.10;47.70
52481;DHT22;38393;52.404;13.532;2023-06-22T15:14:42;30.00;45.90